createdAt,value
2023-04-12T03:10:11.527Z,12.43
2023-04-12T03:12:49.813Z,12.42
2023-04-12T03:15:24.471Z,12.39
2023-04-12T03:32:56.958Z,12.26
2023-04-12T03:35:32.019Z,12.32
2023-04-12T03:53:11.753Z,12.47
2023-04-12T04:31:03.116Z,12.50
2023-04-12T04:33:39.971Z,12.52
2023-04-12T04:36:15.901Z,12.45
2023-04-12T04:38:54.396Z,12.50
2023-04-12T04:54:15.062Z,12.53
2023-04-12T04:56:48.317Z,12.59
2023-04-12T04:59:23.793Z,12.56
2023-04-12T05:01:57.876Z,12.51
2023-04-12T05:04:31.219Z,12.54
2023-04-12T05:07:04.204Z,12.56
2023-04-12T05:09:38.497Z,12.51
2023-04-12T05:12:11.239Z,12.49
2023-04-12T05:14:49.860Z,12.60
2023-04-12T05:17:24.786Z,12.52
2023-04-12T05:19:57.870Z,12.57
2023-04-12T05:22:31.188Z,12.62
2023-04-12T05:25:07.028Z,12.58
2023-04-12T05:27:45.726Z,12.59
2023-04-12T05:30:21.420Z,12.58
2023-04-12T05:32:54.978Z,12.49
2023-04-12T05:35:28.148Z,12.55
2023-04-12T05:38:04.977Z,12.50
2023-04-12T05:40:39.646Z,12.51
2023-04-12T05:43:15.003Z,12.47
2023-04-12T05:45:56.699Z,12.44
2023-04-12T05:48:29.931Z,12.51
2023-04-12T05:51:09.099Z,12.39
2023-04-12T05:53:42.270Z,12.30
2023-04-12T05:56:16.832Z,12.32
2023-04-12T05:58:51.295Z,12.29
2023-04-12T06:01:32.486Z,12.29
2023-04-12T06:04:06.832Z,12.31
2023-04-12T06:06:40.063Z,12.37
2023-04-12T06:09:16.927Z,12.24
2023-04-12T06:11:52.421Z,12.26
2023-04-12T06:14:25.490Z,12.23
2023-04-12T06:16:58.192Z,12.26
2023-04-12T06:19:31.394Z,12.26
2023-04-12T06:22:04.488Z,12.23
2023-04-12T06:24:38.682Z,12.22
2023-04-12T06:27:17.094Z,12.26
2023-04-12T06:29:49.896Z,12.11
2023-04-12T06:32:22.856Z,12.23
2023-04-12T06:34:56.237Z,12.27
2023-04-12T06:37:29.133Z,12.25
2023-04-12T06:40:01.962Z,12.15
2023-04-12T06:42:36.554Z,12.25
2023-04-12T06:45:09.981Z,12.32
2023-04-12T06:47:42.996Z,12.34
2023-04-12T06:50:15.638Z,12.28
2023-04-12T06:52:48.977Z,12.31
2023-04-12T06:55:22.475Z,12.34
2023-04-12T06:57:56.737Z,12.38
2023-04-12T07:00:29.679Z,12.43
2023-04-12T07:03:02.703Z,12.45
2023-04-12T07:05:38.853Z,12.45
2023-04-12T07:08:11.640Z,12.54
2023-04-12T07:10:44.356Z,12.60
2023-04-12T07:13:18.450Z,12.75
2023-04-12T07:15:51.740Z,12.84
2023-04-12T07:18:24.609Z,12.93
2023-04-12T07:20:57.510Z,12.97
2023-04-12T07:23:31.435Z,13.10
2023-04-12T07:26:04.349Z,13.17
2023-04-12T07:28:39.408Z,13.21
2023-04-12T07:31:12.337Z,13.26
2023-04-12T07:33:45.344Z,13.28
2023-04-12T07:36:21.119Z,13.37
2023-04-12T07:38:56.222Z,13.41
2023-04-12T07:41:34.087Z,13.55
2023-04-12T07:44:08.367Z,13.66
2023-04-12T07:46:41.949Z,13.61
2023-04-12T07:49:14.829Z,13.73
2023-04-12T07:51:47.594Z,13.79
2023-04-12T07:54:21.736Z,13.93
2023-04-12T07:57:03.533Z,14.06
2023-04-12T07:59:38.046Z,14.12
2023-04-12T08:02:11.104Z,14.14
2023-04-12T08:04:45.787Z,14.22
2023-04-12T08:07:18.799Z,14.36
2023-04-12T08:09:52.016Z,14.40
2023-04-12T08:12:25.126Z,14.60
2023-04-12T08:14:59.731Z,14.68
2023-04-12T08:17:32.505Z,14.78
2023-04-12T08:20:06.032Z,14.92
2023-04-12T08:22:38.924Z,14.95
2023-04-12T08:25:11.766Z,15.00
2023-04-12T08:27:44.976Z,15.10
2023-04-12T08:30:19.775Z,15.12
2023-04-12T08:32:53.058Z,15.17
2023-04-12T08:35:26.042Z,15.27
2023-04-12T08:38:00.290Z,15.29
2023-04-12T08:40:33.677Z,15.26
2023-04-12T08:43:12.486Z,15.37
2023-04-12T08:45:47.560Z,15.51
2023-04-12T08:48:22.586Z,15.49
2023-04-12T08:50:57.128Z,15.44
2023-04-12T08:53:30.114Z,15.43
2023-04-12T08:56:02.682Z,15.47
2023-04-12T08:58:35.747Z,15.50
2023-04-12T09:01:14.174Z,15.52
2023-04-12T09:03:47.432Z,15.49
2023-04-12T09:06:20.549Z,15.41
2023-04-12T09:08:54.751Z,15.48
2023-04-12T09:11:29.564Z,15.45
2023-04-12T09:14:02.902Z,15.54
2023-04-12T09:16:39.080Z,15.52
2023-04-12T09:19:11.913Z,15.58
2023-04-12T09:21:56.888Z,15.65
2023-04-12T09:24:30.488Z,15.69
2023-04-12T09:27:06.596Z,15.70
2023-04-12T09:29:39.532Z,15.63
2023-04-12T09:32:13.702Z,15.58
2023-04-12T09:34:58.900Z,15.58
2023-04-12T09:37:32.135Z,15.73
2023-04-12T09:40:07.186Z,15.81
2023-04-12T09:42:56.486Z,15.90
2023-04-12T09:45:31.538Z,16.03
2023-04-12T09:48:07.018Z,16.06
2023-04-12T09:50:40.083Z,16.19
2023-04-12T09:53:17.085Z,16.25
2023-04-12T09:55:51.768Z,16.21
2023-04-12T09:58:26.640Z,16.32
2023-04-12T10:01:03.638Z,16.44
2023-04-12T10:03:38.891Z,16.47
2023-04-12T10:06:13.584Z,16.57
2023-04-12T10:08:47.514Z,16.59
2023-04-12T10:11:20.627Z,16.69
2023-04-12T10:13:53.814Z,16.77
2023-04-12T10:16:27.733Z,16.79
2023-04-12T10:19:03.870Z,16.91
2023-04-12T10:21:36.759Z,16.94
2023-04-12T10:24:10.678Z,17.06
2023-04-12T10:26:44.178Z,17.14
2023-04-12T10:29:27.804Z,17.21
2023-04-12T10:32:20.485Z,17.34
2023-04-12T10:34:57.220Z,17.34
2023-04-12T10:38:01.590Z,17.37
2023-04-12T10:40:35.808Z,17.56
2023-04-12T10:43:27.904Z,17.61
2023-04-12T10:46:05.073Z,17.69
2023-04-12T10:48:39.083Z,17.74
2023-04-12T10:51:23.532Z,17.77
2023-04-12T10:54:35.272Z,17.81
2023-04-12T10:57:08.533Z,17.87
2023-04-12T10:59:57.118Z,17.80
2023-04-12T11:02:30.106Z,17.83
2023-04-12T11:05:08.979Z,17.98
2023-04-12T11:08:03.023Z,18.00
2023-04-12T11:11:01.520Z,18.00
2023-04-12T11:13:47.712Z,18.10
2023-04-12T11:19:32.261Z,18.02
2023-04-12T11:22:06.286Z,18.02
2023-04-12T11:24:41.520Z,18.04
2023-04-12T11:27:16.372Z,18.15
2023-04-12T11:29:52.445Z,18.17
2023-04-12T11:32:27.633Z,18.13
2023-04-12T11:35:00.580Z,18.11
2023-04-12T11:37:38.942Z,18.12
2023-04-12T11:40:13.506Z,18.02
2023-04-12T11:42:47.063Z,18.07
2023-04-12T11:45:20.909Z,17.98
2023-04-12T11:47:54.827Z,17.89
2023-04-12T11:50:32.401Z,17.84
2023-04-12T11:53:13.016Z,17.73
2023-04-12T11:55:50.519Z,17.57
2023-04-12T11:58:24.563Z,17.62
2023-04-12T12:00:58.472Z,17.56
2023-04-12T12:03:31.453Z,17.52
2023-04-12T12:06:05.954Z,17.48
2023-04-12T12:08:39.101Z,17.47
2023-04-12T12:11:13.467Z,17.48
2023-04-12T12:13:48.364Z,17.39
2023-04-12T12:16:25.889Z,17.26
2023-04-12T12:18:59.030Z,17.24
2023-04-12T12:21:32.509Z,17.19
2023-04-12T12:24:05.396Z,17.15
2023-04-12T12:26:39.421Z,17.14
2023-04-12T12:29:18.097Z,17.22
2023-04-12T12:31:51.053Z,17.22
2023-04-12T12:34:26.871Z,17.31
2023-04-12T12:36:59.621Z,17.34
2023-04-12T12:39:32.412Z,17.38
2023-04-12T12:42:06.899Z,17.45
2023-04-12T12:44:39.590Z,17.55
2023-04-12T12:47:15.037Z,17.65
2023-04-12T12:49:47.886Z,17.80
2023-04-12T12:52:20.822Z,17.82
2023-04-12T12:54:53.485Z,17.91
2023-04-12T12:57:27.642Z,17.95
2023-04-12T13:00:00.375Z,18.01
2023-04-12T13:02:34.340Z,18.11
2023-04-12T13:05:10.236Z,18.13
2023-04-12T13:07:45.560Z,18.16
2023-04-12T13:10:18.297Z,18.13
2023-04-12T13:12:52.344Z,18.13
2023-04-12T13:15:25.283Z,18.02
2023-04-12T13:17:57.885Z,18.14
2023-04-12T13:20:30.777Z,18.12
2023-04-12T13:23:03.354Z,18.09
2023-04-12T13:25:36.069Z,17.96
2023-04-12T13:28:10.069Z,17.87
2023-04-12T13:30:42.698Z,17.89
2023-04-12T13:33:20.090Z,17.78
2023-04-12T13:35:54.497Z,17.66
2023-04-12T13:38:27.343Z,17.50
2023-04-12T13:41:00.008Z,17.56
2023-04-12T13:43:34.066Z,17.60
2023-04-12T13:46:07.172Z,17.65
2023-04-12T13:48:39.984Z,17.62
2023-04-12T13:51:12.640Z,17.59
2023-04-12T13:53:45.686Z,17.62
2023-04-12T13:56:18.233Z,17.61
2023-04-12T13:58:52.370Z,17.53
2023-04-12T14:01:25.363Z,17.66
2023-04-12T14:03:58.413Z,17.71
2023-04-12T14:06:31.629Z,17.73
2023-04-12T14:09:05.692Z,17.80
2023-04-12T14:11:48.774Z,17.81
2023-04-12T14:14:23.439Z,17.85
2023-04-12T14:16:57.711Z,17.89
2023-04-12T14:19:30.800Z,17.94
2023-04-12T14:22:03.865Z,18.00
2023-04-12T14:24:36.866Z,17.99
2023-04-12T14:27:09.628Z,18.09
2023-04-12T14:29:43.596Z,18.05
2023-04-12T14:32:16.396Z,18.06
2023-04-12T14:34:49.189Z,18.11
2023-04-12T14:37:21.884Z,18.15
2023-04-12T14:39:54.913Z,18.16
2023-04-12T14:42:27.846Z,18.27
2023-04-12T14:45:02.809Z,18.25
2023-04-12T14:47:35.676Z,18.33
2023-04-12T14:50:08.620Z,18.30
2023-04-12T14:52:41.408Z,18.33
2023-04-12T14:55:14.203Z,18.31
2023-04-12T14:57:46.976Z,18.33
2023-04-12T15:00:23.490Z,18.34
2023-04-12T15:02:56.699Z,18.41
2023-04-12T15:05:29.608Z,18.39
2023-04-12T15:08:02.271Z,18.38
2023-04-12T15:10:35.197Z,18.34
2023-04-12T15:13:07.787Z,18.31
2023-04-12T15:15:42.848Z,18.21
2023-04-12T15:18:15.995Z,18.18
2023-04-12T15:20:48.797Z,17.99
2023-04-12T15:23:21.591Z,17.90
2023-04-12T15:26:00.117Z,17.88
2023-04-12T15:28:33.434Z,17.81
2023-04-12T15:31:08.871Z,17.72
2023-04-12T15:33:41.876Z,17.60
2023-04-12T15:36:16.626Z,17.73
2023-04-12T15:38:49.376Z,17.69
2023-04-12T15:41:21.998Z,17.56
2023-04-12T15:43:54.696Z,17.54
2023-04-12T15:46:29.349Z,17.55
2023-04-12T15:49:02.586Z,17.48
2023-04-12T15:51:35.854Z,17.49
2023-04-12T15:54:08.688Z,17.43
2023-04-12T15:56:43.274Z,17.40
2023-04-12T15:59:18.718Z,17.32
2023-04-12T16:01:53.255Z,17.16
2023-04-12T16:04:27.325Z,17.10
2023-04-12T16:07:02.163Z,16.90
2023-04-12T16:09:34.973Z,16.98
2023-04-12T16:12:08.020Z,17.03
2023-04-12T16:14:40.670Z,16.96
2023-04-12T16:17:15.188Z,16.90
2023-04-12T16:19:54.381Z,16.84
2023-04-12T16:22:27.382Z,16.84
2023-04-12T16:25:00.172Z,16.75
2023-04-12T16:27:32.969Z,16.61
2023-04-12T16:30:06.576Z,16.64
2023-04-12T16:32:40.758Z,16.56
2023-04-12T16:35:14.900Z,16.49
2023-04-12T16:37:48.124Z,16.42
2023-04-12T16:40:21.321Z,16.33
2023-04-12T16:42:54.088Z,16.29
2023-04-12T16:45:27.170Z,16.29
2023-04-12T16:48:01.401Z,16.22
2023-04-12T16:50:34.130Z,16.02
2023-04-12T16:53:08.490Z,16.11
2023-04-12T16:55:44.845Z,16.11
2023-04-12T16:58:18.270Z,15.81
2023-04-12T17:00:51.028Z,15.87
2023-04-12T17:03:25.331Z,15.68
2023-04-12T17:05:58.201Z,15.40
2023-04-12T17:08:30.964Z,15.36
2023-04-12T17:11:03.641Z,15.19
2023-04-12T17:13:36.732Z,15.37
2023-04-12T17:16:10.984Z,15.49
2023-04-12T17:18:45.507Z,15.27
2023-04-12T17:21:20.054Z,15.16
2023-04-12T17:23:53.571Z,15.34
2023-04-12T17:26:27.253Z,15.36
2023-04-12T17:29:01.051Z,15.20
2023-04-12T17:34:08.142Z,14.99
2023-04-12T17:36:42.347Z,15.01
2023-04-12T17:39:15.265Z,14.77
2023-04-12T17:41:47.847Z,14.64
2023-04-12T17:44:20.578Z,14.44
2023-04-12T17:46:53.232Z,14.36
2023-04-12T17:49:27.389Z,14.73
2023-04-12T17:52:01.421Z,14.57
2023-04-12T17:54:36.531Z,14.78
2023-04-12T17:57:09.374Z,14.63
2023-04-12T17:59:42.175Z,14.55
2023-04-12T18:02:16.950Z,14.30
2023-04-12T18:04:51.764Z,14.60
2023-04-12T18:07:24.472Z,14.32
2023-04-12T18:09:57.483Z,14.36
2023-04-12T18:12:30.084Z,14.26
2023-04-12T18:15:03.513Z,14.19
2023-04-12T18:17:36.391Z,14.40
2023-04-12T18:20:12.622Z,14.23
2023-04-12T18:22:46.040Z,14.06
2023-04-12T18:25:18.949Z,14.10
2023-04-12T18:27:52.381Z,14.38
2023-04-12T18:30:25.271Z,14.37
2023-04-12T18:32:58.996Z,14.35
2023-04-12T18:35:34.208Z,14.19
2023-04-12T18:38:07.510Z,13.93
2023-04-12T18:40:40.660Z,13.87
2023-04-12T18:43:13.370Z,13.74
2023-04-12T18:45:46.790Z,13.91
2023-04-12T18:48:19.633Z,13.65
2023-04-12T18:50:54.244Z,13.57
2023-04-12T18:53:27.031Z,13.34
2023-04-12T18:56:08.492Z,13.60
2023-04-12T18:58:54.459Z,13.75
2023-04-12T19:01:29.641Z,13.72
2023-04-12T19:04:04.422Z,13.55
2023-04-12T19:06:39.427Z,13.21
2023-04-12T19:09:12.425Z,13.42
2023-04-12T19:11:45.364Z,13.09
2023-04-12T19:14:18.114Z,13.04
2023-04-12T19:16:51.042Z,13.03
2023-04-12T19:19:23.659Z,13.19
2023-04-12T19:21:58.250Z,13.08
2023-04-12T19:24:31.288Z,13.25
2023-04-12T19:27:04.056Z,13.34
2023-04-12T19:29:36.816Z,13.46
2023-04-12T19:32:12.276Z,13.41
2023-04-12T19:34:45.024Z,13.50
2023-04-12T19:37:19.252Z,13.53
2023-04-12T19:39:52.446Z,13.54
2023-04-12T19:42:25.341Z,13.51
2023-04-12T19:44:58.157Z,13.51
2023-04-12T19:47:30.859Z,13.48
2023-04-12T19:50:04.442Z,13.48
2023-04-12T19:52:38.587Z,13.34
2023-04-12T19:55:12.161Z,13.42
2023-04-12T19:57:45.297Z,13.39
2023-04-12T20:00:28.481Z,13.31
2023-04-12T20:03:01.961Z,13.37
2023-04-12T20:05:34.654Z,13.42
2023-04-12T20:08:10.913Z,13.39
2023-04-12T20:10:43.832Z,13.36
2023-04-12T20:13:20.287Z,13.31
2023-04-12T20:16:04.599Z,13.29
2023-04-12T20:18:42.487Z,13.27
2023-04-12T20:21:40.425Z,13.26
2023-04-12T20:24:17.044Z,13.27
2023-04-12T20:26:51.540Z,13.26
2023-04-12T20:29:29.603Z,13.24
2023-04-12T20:32:02.422Z,13.18
2023-04-12T20:34:35.179Z,13.16
2023-04-12T20:37:07.862Z,13.12
2023-04-12T20:39:42.187Z,13.10
2023-04-12T20:42:16.453Z,13.07
2023-04-12T20:44:49.786Z,13.04
2023-04-12T20:47:22.551Z,13.05
2023-04-12T20:49:56.355Z,12.73
2023-04-12T20:52:30.137Z,12.71
2023-04-12T20:55:05.623Z,12.80
2023-04-12T20:57:38.272Z,12.97
2023-04-12T21:00:17.999Z,12.96
2023-04-12T21:02:51.107Z,12.93
2023-04-12T21:05:24.264Z,12.82
2023-04-12T21:07:57.691Z,12.79
2023-04-12T21:10:31.889Z,12.81
2023-04-12T21:13:04.577Z,12.75
2023-04-12T21:15:37.222Z,12.63
2023-04-12T21:18:10.163Z,12.34
2023-04-12T21:20:44.209Z,12.22
2023-04-12T21:23:17.529Z,12.00
2023-04-12T21:25:51.649Z,12.09
2023-04-12T21:28:24.441Z,12.06
2023-04-12T22:01:09.314Z,11.91
2023-04-12T22:03:43.167Z,11.81
2023-04-12T22:06:17.056Z,11.93
2023-04-12T22:08:49.672Z,12.08
2023-04-12T22:11:22.449Z,12.02
2023-04-12T22:13:55.414Z,11.80
2023-04-12T22:16:29.798Z,11.72
2023-04-12T22:19:02.666Z,11.65
2023-04-12T22:24:45.924Z,11.69
2023-04-12T22:27:18.766Z,11.49
2023-04-12T22:35:40.895Z,11.55
2023-04-12T22:47:08.126Z,11.67
2023-04-12T22:49:46.302Z,11.68
2023-04-12T22:52:21.780Z,11.55
2023-04-12T22:54:54.523Z,11.51
2023-04-12T22:57:27.440Z,11.47
2023-04-12T23:00:00.445Z,11.39
2023-04-12T23:02:34.425Z,11.42
2023-04-12T23:05:07.773Z,11.58
2023-04-12T23:07:43.477Z,11.45
2023-04-12T23:10:16.460Z,11.57
2023-04-12T23:12:49.762Z,11.55
2023-04-12T23:15:24.037Z,11.57
2023-04-12T23:17:56.805Z,11.37
2023-04-12T23:20:30.265Z,11.61
2023-04-12T23:23:05.693Z,11.59
2023-04-12T23:25:41.792Z,11.42
2023-04-12T23:28:19.315Z,11.41
2023-04-12T23:33:46.599Z,11.46
2023-04-12T23:36:21.935Z,11.55
2023-04-12T23:39:00.112Z,11.53
2023-04-12T23:41:33.860Z,11.57
2023-04-12T23:44:06.652Z,11.57
2023-04-12T23:46:39.693Z,11.57
2023-04-12T23:49:12.467Z,11.55
2023-04-12T23:51:45.240Z,11.54
2023-04-12T23:54:19.310Z,11.51
2023-04-12T23:56:52.176Z,11.54
2023-04-12T23:59:25.847Z,11.54
